createdAt,value
2019-02-09T00:00:06.416Z,1017.37
2019-02-09T00:00:47.084Z,1017.39
2019-02-09T00:01:27.678Z,1017.38
2019-02-09T00:02:08.284Z,1017.37
2019-02-09T00:02:48.887Z,1017.38
2019-02-09T00:03:29.476Z,1017.35
2019-02-09T00:04:10.076Z,1017.33
2019-02-09T00:04:50.666Z,1017.38
2019-02-09T00:05:31.254Z,1017.32
2019-02-09T00:06:11.857Z,1017.32
2019-02-09T00:06:52.452Z,1017.32
2019-02-09T00:07:33.042Z,1017.37
2019-02-09T00:08:13.656Z,1017.35
2019-02-09T00:08:54.247Z,1017.36
2019-02-09T00:09:34.842Z,1017.34
2019-02-09T00:10:15.434Z,1017.34
2019-02-09T00:10:56.052Z,1017.36
2019-02-09T00:11:36.652Z,1017.34
2019-02-09T00:12:17.253Z,1017.33
2019-02-09T00:12:57.862Z,1017.36
2019-02-09T00:13:38.443Z,1017.35
2019-02-09T00:14:19.051Z,1017.34
2019-02-09T00:14:59.648Z,1017.34
2019-02-09T00:15:40.261Z,1017.32
2019-02-09T00:16:20.853Z,1017.28
2019-02-09T00:17:01.474Z,1017.3
2019-02-09T00:17:42.068Z,1017.3
2019-02-09T00:18:22.673Z,1017.3
2019-02-09T00:19:03.757Z,1017.28
2019-02-09T00:19:43.842Z,1017.29
2019-02-09T00:20:24.443Z,1017.27
2019-02-09T00:21:05.052Z,1017.32
2019-02-09T00:21:45.643Z,1017.33
2019-02-09T00:22:26.246Z,1017.32
2019-02-09T00:23:06.835Z,1017.31
2019-02-09T00:23:47.439Z,1017.29
2019-02-09T00:24:28.052Z,1017.32
2019-02-09T00:25:08.664Z,1017.34
2019-02-09T00:25:49.254Z,1017.32
2019-02-09T00:26:29.862Z,1017.3
2019-02-09T00:27:10.474Z,1017.33
2019-02-09T00:27:51.089Z,1017.32
2019-02-09T00:28:31.688Z,1017.26
2019-02-09T00:29:12.300Z,1017.28
2019-02-09T00:29:52.922Z,1017.27
2019-02-09T00:30:33.540Z,1017.27
2019-02-09T00:31:14.170Z,1017.26
2019-02-09T00:31:54.764Z,1017.32
2019-02-09T00:32:35.357Z,1017.32
2019-02-09T00:33:15.972Z,1017.37
2019-02-09T00:33:56.607Z,1017.29
2019-02-09T00:34:37.200Z,1017.36
2019-02-09T00:35:17.788Z,1017.35
2019-02-09T00:35:58.424Z,1017.38
2019-02-09T00:36:39.053Z,1017.39
2019-02-09T00:37:19.668Z,1017.32
2019-02-09T00:38:00.277Z,1017.35
2019-02-09T00:38:40.993Z,1017.35
2019-02-09T00:39:21.627Z,1017.31
2019-02-09T00:40:02.218Z,1017.35
2019-02-09T00:40:42.872Z,1017.35
2019-02-09T00:41:23.468Z,1017.37
2019-02-09T00:42:04.099Z,1017.38
2019-02-09T00:42:44.731Z,1017.37
2019-02-09T00:43:25.347Z,1017.36
2019-02-09T00:44:05.990Z,1017.37
2019-02-09T00:44:46.579Z,1017.4
2019-02-09T00:45:27.177Z,1017.37
2019-02-09T00:46:07.758Z,1017.36
2019-02-09T00:46:48.358Z,1017.34
2019-02-09T00:47:28.988Z,1017.31
2019-02-09T00:48:09.606Z,1017.29
2019-02-09T00:48:50.187Z,1017.29
2019-02-09T00:49:30.780Z,1017.26
2019-02-09T00:50:11.371Z,1017.26
2019-02-09T00:50:51.948Z,1017.24
2019-02-09T00:51:32.552Z,1017.27
2019-02-09T00:52:13.188Z,1017.28
2019-02-09T00:52:53.817Z,1017.28
2019-02-09T00:53:34.412Z,1017.32
2019-02-09T00:54:15.014Z,1017.33
2019-02-09T00:54:55.617Z,1017.31
2019-02-09T00:55:36.204Z,1017.33
2019-02-09T00:56:16.797Z,1017.3
2019-02-09T00:56:57.396Z,1017.34
2019-02-09T00:57:37.996Z,1017.32
2019-02-09T00:58:18.580Z,1017.33
2019-02-09T00:58:59.201Z,1017.29
2019-02-09T00:59:39.810Z,1017.32
2019-02-09T01:00:20.421Z,1017.34
2019-02-09T01:01:01.015Z,1017.35
2019-02-09T01:01:41.608Z,1017.33
2019-02-09T01:02:22.197Z,1017.31
2019-02-09T01:03:02.802Z,1017.33
2019-02-09T01:03:43.411Z,1017.32
2019-02-09T01:04:24.044Z,1017.32
2019-02-09T01:05:04.664Z,1017.32
2019-02-09T01:05:45.329Z,1017.3
2019-02-09T01:06:25.974Z,1017.3
2019-02-09T01:07:06.588Z,1017.26
2019-02-09T01:07:47.206Z,1017.27
2019-02-09T01:08:27.857Z,1017.26
2019-02-09T01:09:08.468Z,1017.23
2019-02-09T01:09:49.104Z,1017.24
2019-02-09T01:10:29.800Z,1017.2
2019-02-09T01:11:10.414Z,1017.22
2019-02-09T01:11:51.058Z,1017.19
2019-02-09T01:12:31.664Z,1017.18
2019-02-09T01:13:12.250Z,1017.15
2019-02-09T01:13:53.084Z,1017.12
2019-02-09T01:15:48.804Z,1017.13
2019-02-09T01:16:29.438Z,1017.11
2019-02-09T01:17:10.040Z,1017.12
2019-02-09T01:17:50.643Z,1017.08
2019-02-09T01:18:31.288Z,1017.08
2019-02-09T01:19:11.873Z,1017.08
2019-02-09T01:19:52.454Z,1017.08
2019-02-09T01:20:33.040Z,1017.05
2019-02-09T01:21:13.650Z,1017.08
2019-02-09T01:21:54.249Z,1017.09
2019-02-09T01:22:34.850Z,1017.12
2019-02-09T01:23:15.459Z,1017.1
2019-02-09T01:23:56.066Z,1017.17
2019-02-09T01:24:36.652Z,1017.16
2019-02-09T01:25:17.238Z,1017.2
2019-02-09T01:25:57.818Z,1017.18
2019-02-09T01:26:38.404Z,1017.17
2019-02-09T01:27:19.010Z,1017.24
2019-02-09T01:27:59.588Z,1017.22
2019-02-09T01:28:40.194Z,1017.21
2019-02-09T01:29:20.814Z,1017.23
2019-02-09T01:30:02.660Z,1017.24
2019-02-09T01:30:42.012Z,1017.21
2019-02-09T01:31:22.615Z,1017.19
2019-02-09T01:32:03.198Z,1017.2
2019-02-09T01:32:43.800Z,1017.18
2019-02-09T01:33:24.388Z,1017.19
2019-02-09T01:34:04.984Z,1017.19
2019-02-09T01:34:45.581Z,1017.21
2019-02-09T01:35:26.183Z,1017.19
2019-02-09T01:36:06.777Z,1017.24
2019-02-09T01:36:47.378Z,1017.23
2019-02-09T01:37:27.972Z,1017.26
2019-02-09T01:39:59.438Z,1017.29
2019-02-09T01:40:40.052Z,1017.29
2019-02-09T01:41:20.644Z,1017.27
2019-02-09T01:42:01.292Z,1017.3
2019-02-09T01:42:41.886Z,1017.28
2019-02-09T01:43:22.473Z,1017.29
2019-02-09T01:44:03.075Z,1017.3
2019-02-09T01:44:43.676Z,1017.27
2019-02-09T01:45:24.284Z,1017.33
2019-02-09T01:46:04.877Z,1017.28
2019-02-09T01:46:45.502Z,1017.25
2019-02-09T01:47:26.132Z,1017.26
2019-02-09T01:48:06.718Z,1017.25
2019-02-09T01:48:47.328Z,1017.27
2019-02-09T01:49:27.922Z,1017.27
2019-02-09T01:50:08.504Z,1017.27
2019-02-09T01:50:49.110Z,1017.25
2019-02-09T01:51:29.721Z,1017.25
2019-02-09T01:52:10.476Z,1017.25
2019-02-09T01:52:51.072Z,1017.28
2019-02-09T01:53:31.670Z,1017.23
2019-02-09T01:54:12.257Z,1017.23
2019-02-09T01:54:52.844Z,1017.24
2019-02-09T01:55:33.434Z,1017.24
2019-02-09T01:56:14.018Z,1017.2
2019-02-09T01:56:54.633Z,1017.21
2019-02-09T01:57:35.216Z,1017.19
2019-02-09T01:58:15.812Z,1017.2
2019-02-09T01:58:56.411Z,1017.2
2019-02-09T01:59:37.047Z,1017.21
2019-02-09T02:00:17.632Z,1017.18
2019-02-09T02:00:58.212Z,1017.17
2019-02-09T02:01:38.834Z,1017.17
2019-02-09T02:02:19.422Z,1017.17
2019-02-09T02:03:00.012Z,1017.16
2019-02-09T02:03:40.610Z,1017.14
2019-02-09T02:04:21.206Z,1017.13
2019-02-09T02:05:01.807Z,1017.12
2019-02-09T02:05:42.404Z,1017.15
2019-02-09T02:06:22.995Z,1017.14
2019-02-09T02:07:03.603Z,1017.16
2019-02-09T02:07:44.198Z,1017.2
2019-02-09T02:08:24.800Z,1017.18
2019-02-09T02:09:05.400Z,1017.23
2019-02-09T02:09:46.000Z,1017.22
2019-02-09T02:10:26.606Z,1017.21
2019-02-09T02:11:07.207Z,1017.24
2019-02-09T02:11:47.810Z,1017.2
2019-02-09T02:12:28.428Z,1017.21
2019-02-09T02:13:09.047Z,1017.22
2019-02-09T02:13:49.652Z,1017.2
2019-02-09T02:14:30.241Z,1017.22
2019-02-09T02:15:10.826Z,1017.21
2019-02-09T02:15:51.421Z,1017.18
2019-02-09T02:16:32.014Z,1017.21
2019-02-09T02:17:12.708Z,1017.22
2019-02-09T02:17:53.304Z,1017.21
2019-02-09T02:18:33.902Z,1017.18
2019-02-09T02:19:14.498Z,1017.19
2019-02-09T02:19:55.132Z,1017.17
2019-02-09T02:20:35.745Z,1017.13
2019-02-09T02:21:16.353Z,1017.18
2019-02-09T02:21:56.950Z,1017.18
2019-02-09T02:22:37.548Z,1017.12
2019-02-09T02:23:18.160Z,1017.12
2019-02-09T02:23:58.752Z,1017.12
2019-02-09T02:24:39.348Z,1017.1
2019-02-09T02:25:20.036Z,1017.1
2019-02-09T02:26:00.618Z,1017.11
2019-02-09T02:26:41.257Z,1017.09
2019-02-09T02:27:21.852Z,1017.09
2019-02-09T02:28:02.463Z,1017.09
2019-02-09T02:28:43.058Z,1017.06
2019-02-09T02:29:23.652Z,1017.08
2019-02-09T02:30:04.280Z,1017.12
2019-02-09T02:30:44.852Z,1017.11
2019-02-09T02:31:25.448Z,1017.07
2019-02-09T02:32:06.037Z,1017.07
2019-02-09T02:32:46.639Z,1017.12
2019-02-09T02:33:27.247Z,1017.1
2019-02-09T02:34:07.835Z,1017.08
2019-02-09T02:34:48.498Z,1017.1
2019-02-09T02:35:29.094Z,1017.08
2019-02-09T02:36:09.696Z,1017.07
2019-02-09T02:36:50.302Z,1017.08
2019-02-09T02:37:30.895Z,1017.08
2019-02-09T02:38:11.526Z,1017.09
2019-02-09T02:38:52.117Z,1017.13
2019-02-09T02:39:32.739Z,1017.13
2019-02-09T02:40:13.360Z,1017.11
2019-02-09T02:40:53.969Z,1017.12
2019-02-09T02:41:34.581Z,1017.11
2019-02-09T02:42:15.165Z,1017.12
2019-02-09T02:42:55.770Z,1017.06
2019-02-09T02:43:36.369Z,1017.07
2019-02-09T02:44:16.967Z,1017.03
2019-02-09T02:44:57.570Z,1017.05
2019-02-09T02:45:38.162Z,1017.01
2019-02-09T02:46:18.767Z,1017.01
2019-02-09T02:46:59.356Z,1017
2019-02-09T02:47:39.962Z,1017.03
2019-02-09T02:48:20.578Z,1017.01
2019-02-09T02:49:01.170Z,1016.99
2019-02-09T02:49:41.789Z,1016.97
2019-02-09T02:50:22.380Z,1016.98
2019-02-09T02:51:02.972Z,1017.01
2019-02-09T02:51:43.583Z,1016.97
2019-02-09T02:52:24.200Z,1017
2019-02-09T02:53:04.790Z,1016.99
2019-02-09T02:53:45.390Z,1017.01
2019-02-09T02:54:25.986Z,1016.99
2019-02-09T02:55:06.581Z,1017.01
2019-02-09T02:55:47.172Z,1016.97
2019-02-09T02:56:27.747Z,1017.01
2019-02-09T02:57:08.344Z,1016.99
2019-02-09T02:57:48.943Z,1017.01
2019-02-09T02:58:29.629Z,1016.98
2019-02-09T02:59:10.230Z,1016.95
2019-02-09T02:59:50.808Z,1016.99
2019-02-09T03:00:32.806Z,1016.99
2019-02-09T03:01:12.002Z,1016.99
2019-02-09T03:01:52.596Z,1016.96
2019-02-09T03:02:33.188Z,1016.94
2019-02-09T03:03:13.780Z,1016.94
2019-02-09T03:03:54.384Z,1016.92
2019-02-09T03:04:34.975Z,1016.93
2019-02-09T03:05:15.582Z,1016.91
2019-02-09T03:05:56.194Z,1016.85
2019-02-09T03:06:36.789Z,1016.89
2019-02-09T03:07:17.370Z,1016.89
2019-02-09T03:07:57.996Z,1016.86
2019-02-09T03:08:38.572Z,1016.87
2019-02-09T03:09:19.176Z,1016.85
2019-02-09T03:09:59.786Z,1016.85
2019-02-09T03:10:40.368Z,1016.87
2019-02-09T03:11:20.975Z,1016.84
2019-02-09T03:12:01.570Z,1016.82
2019-02-09T03:12:42.154Z,1016.84
2019-02-09T03:13:22.736Z,1016.87
2019-02-09T03:14:03.336Z,1016.84
2019-02-09T03:14:43.934Z,1016.87
2019-02-09T03:15:24.594Z,1016.84
2019-02-09T03:16:05.182Z,1016.87
2019-02-09T03:16:45.824Z,1016.87
2019-02-09T03:17:26.452Z,1016.86
2019-02-09T03:18:07.075Z,1016.93
2019-02-09T03:18:47.682Z,1016.9
2019-02-09T03:19:28.271Z,1016.9
2019-02-09T03:20:08.852Z,1016.91
2019-02-09T03:20:49.453Z,1016.89
2019-02-09T03:21:30.057Z,1016.9
2019-02-09T03:22:10.652Z,1016.91
2019-02-09T03:22:51.274Z,1016.91
2019-02-09T03:23:31.872Z,1016.92
2019-02-09T03:24:12.470Z,1016.9
2019-02-09T03:24:53.073Z,1016.91
2019-02-09T03:25:33.702Z,1016.92
2019-02-09T03:26:14.324Z,1016.92
2019-02-09T03:26:54.934Z,1016.94
2019-02-09T03:27:35.548Z,1016.93
2019-02-09T03:28:16.128Z,1016.97
2019-02-09T03:28:56.730Z,1016.96
2019-02-09T03:29:37.328Z,1016.94
2019-02-09T03:30:17.931Z,1016.94
2019-02-09T03:30:58.545Z,1016.95
2019-02-09T03:31:39.146Z,1016.92
2019-02-09T03:32:19.743Z,1016.91
2019-02-09T03:33:00.345Z,1016.93
2019-02-09T03:33:40.931Z,1016.91
2019-02-09T03:34:21.544Z,1016.89
2019-02-09T03:35:02.155Z,1016.88
2019-02-09T03:35:42.755Z,1016.88
2019-02-09T03:36:23.352Z,1016.9
2019-02-09T03:37:03.956Z,1016.9
2019-02-09T03:37:44.548Z,1016.91
2019-02-09T03:38:25.144Z,1016.94
2019-02-09T03:39:06.072Z,1016.91
2019-02-09T03:39:46.357Z,1016.94
2019-02-09T03:40:26.972Z,1016.92
2019-02-09T03:41:07.558Z,1016.92
2019-02-09T03:41:48.158Z,1016.94
2019-02-09T03:42:28.782Z,1016.96
2019-02-09T03:43:09.378Z,1016.94
2019-02-09T03:43:49.974Z,1017.01
2019-02-09T03:44:30.569Z,1017.03
2019-02-09T03:45:11.162Z,1017.02
2019-02-09T03:45:51.760Z,1017.03
2019-02-09T03:46:32.348Z,1017.03
2019-02-09T03:47:12.933Z,1017.04
2019-02-09T03:47:53.537Z,1017.03
2019-02-09T03:48:34.114Z,1017.07
2019-02-09T03:49:14.742Z,1017.06
2019-02-09T03:49:55.342Z,1017.04
2019-02-09T03:50:35.934Z,1017.07
2019-02-09T03:51:16.548Z,1017.03
2019-02-09T03:51:57.145Z,1017.08
2019-02-09T03:52:37.748Z,1016.99
2019-02-09T03:53:18.349Z,1017.02
2019-02-09T03:53:58.954Z,1017.02
2019-02-09T03:54:39.542Z,1016.96
2019-02-09T03:55:20.142Z,1016.98
2019-02-09T03:56:00.739Z,1017
2019-02-09T03:56:41.322Z,1016.96
2019-02-09T03:57:21.921Z,1016.97
2019-02-09T03:58:02.517Z,1016.98
2019-02-09T03:58:43.095Z,1016.97
2019-02-09T03:59:23.716Z,1017
2019-02-09T04:00:04.301Z,1016.99
2019-02-09T04:00:44.905Z,1016.99
2019-02-09T04:01:25.518Z,1017.04
2019-02-09T04:02:06.127Z,1017.02
2019-02-09T04:02:46.721Z,1017.03
2019-02-09T04:03:27.316Z,1017.04
2019-02-09T04:04:07.902Z,1017.07
2019-02-09T04:04:48.511Z,1017.07
2019-02-09T04:05:29.109Z,1017.07
2019-02-09T04:06:09.690Z,1017.14
2019-02-09T04:06:50.280Z,1017.09
2019-02-09T04:07:30.864Z,1017.12
2019-02-09T04:08:11.473Z,1017.11
2019-02-09T04:08:52.056Z,1017.15
2019-02-09T04:09:32.653Z,1017.18
2019-02-09T04:10:13.249Z,1017.17
2019-02-09T04:10:53.847Z,1017.19
2019-02-09T04:11:34.458Z,1017.2
2019-02-09T04:12:15.067Z,1017.18
2019-02-09T04:12:55.653Z,1017.18
2019-02-09T04:13:36.252Z,1017.2
2019-02-09T04:14:16.852Z,1017.22
2019-02-09T04:14:57.448Z,1017.18
2019-02-09T04:15:38.065Z,1017.21
2019-02-09T04:16:18.660Z,1017.27
2019-02-09T04:16:59.263Z,1017.25
2019-02-09T04:17:39.866Z,1017.31
2019-02-09T04:18:20.452Z,1017.28
2019-02-09T04:19:01.032Z,1017.28
2019-02-09T04:19:41.622Z,1017.26
2019-02-09T04:20:22.235Z,1017.21
2019-02-09T04:21:02.840Z,1017.29
2019-02-09T04:21:43.425Z,1017.26
2019-02-09T04:22:24.019Z,1017.23
2019-02-09T04:23:04.639Z,1017.25
2019-02-09T04:23:45.242Z,1017.26
2019-02-09T04:24:25.842Z,1017.25
2019-02-09T04:25:06.432Z,1017.31
2019-02-09T04:25:47.051Z,1017.24
2019-02-09T04:26:27.655Z,1017.31
2019-02-09T04:27:08.259Z,1017.32
2019-02-09T04:27:48.884Z,1017.29
2019-02-09T04:28:29.456Z,1017.34
2019-02-09T04:29:10.053Z,1017.31
2019-02-09T04:29:50.652Z,1017.3
2019-02-09T04:30:31.257Z,1017.33
2019-02-09T04:31:11.895Z,1017.31
2019-02-09T04:31:52.499Z,1017.32
2019-02-09T04:32:33.091Z,1017.29
2019-02-09T04:33:13.683Z,1017.3
2019-02-09T04:33:54.312Z,1017.3
2019-02-09T04:34:34.899Z,1017.31
2019-02-09T04:35:15.485Z,1017.31
2019-02-09T04:35:56.086Z,1017.28
2019-02-09T04:36:36.711Z,1017.29
2019-02-09T04:37:17.313Z,1017.32
2019-02-09T04:37:57.908Z,1017.29
2019-02-09T04:38:38.512Z,1017.26
2019-02-09T04:39:19.109Z,1017.31
2019-02-09T04:39:59.707Z,1017.29
2019-02-09T04:40:40.307Z,1017.3
2019-02-09T04:41:20.935Z,1017.31
2019-02-09T04:42:01.521Z,1017.3
2019-02-09T04:42:42.117Z,1017.33
2019-02-09T04:43:22.719Z,1017.34
2019-02-09T04:44:03.310Z,1017.34
2019-02-09T04:44:43.914Z,1017.34
2019-02-09T04:45:24.517Z,1017.36
2019-02-09T04:46:05.129Z,1017.38
2019-02-09T04:46:45.724Z,1017.37
2019-02-09T04:47:26.306Z,1017.39
2019-02-09T04:48:06.944Z,1017.41
2019-02-09T04:48:47.500Z,1017.38
2019-02-09T04:49:28.120Z,1017.38
2019-02-09T04:50:08.707Z,1017.37
2019-02-09T04:50:49.294Z,1017.38
2019-02-09T04:51:29.896Z,1017.4
2019-02-09T04:52:10.515Z,1017.46
2019-02-09T04:52:51.101Z,1017.45
2019-02-09T04:53:31.702Z,1017.43
2019-02-09T04:54:12.299Z,1017.46
2019-02-09T04:54:52.895Z,1017.43
2019-02-09T04:55:33.521Z,1017.42
2019-02-09T04:56:14.112Z,1017.43
2019-02-09T04:56:54.706Z,1017.4
2019-02-09T04:57:35.300Z,1017.46
2019-02-09T04:58:15.882Z,1017.43
2019-02-09T04:58:56.483Z,1017.42
2019-02-09T04:59:37.059Z,1017.42
2019-02-09T05:00:17.654Z,1017.38
2019-02-09T05:00:58.256Z,1017.4
2019-02-09T05:01:38.876Z,1017.42
2019-02-09T05:02:19.510Z,1017.41
2019-02-09T05:03:00.071Z,1017.41
2019-02-09T05:03:40.667Z,1017.45
2019-02-09T05:04:21.291Z,1017.47
2019-02-09T05:05:01.887Z,1017.47
2019-02-09T05:05:42.476Z,1017.47
2019-02-09T05:06:23.090Z,1017.5
2019-02-09T05:07:03.691Z,1017.48
2019-02-09T05:07:44.276Z,1017.44
2019-02-09T05:08:24.878Z,1017.48
2019-02-09T05:09:05.469Z,1017.45
2019-02-09T05:09:46.097Z,1017.48
2019-02-09T05:10:26.694Z,1017.44
2019-02-09T05:11:07.298Z,1017.42
2019-02-09T05:11:47.896Z,1017.42
2019-02-09T05:12:28.524Z,1017.47
2019-02-09T05:13:09.125Z,1017.47
2019-02-09T05:13:49.710Z,1017.46
2019-02-09T05:14:30.313Z,1017.51
2019-02-09T05:15:10.912Z,1017.53
2019-02-09T05:15:51.502Z,1017.59
2019-02-09T05:16:32.088Z,1017.59
2019-02-09T05:17:12.691Z,1017.56
2019-02-09T05:17:53.284Z,1017.57
2019-02-09T05:18:33.873Z,1017.55
2019-02-09T05:19:14.463Z,1017.56
2019-02-09T05:19:55.073Z,1017.53
2019-02-09T05:20:35.713Z,1017.52
2019-02-09T05:21:16.313Z,1017.52
2019-02-09T05:21:56.909Z,1017.48
2019-02-09T05:22:37.526Z,1017.51
2019-02-09T05:23:18.110Z,1017.5
2019-02-09T05:23:58.711Z,1017.54
2019-02-09T05:24:39.296Z,1017.57
2019-02-09T05:25:19.879Z,1017.5
2019-02-09T05:26:00.474Z,1017.52
2019-02-09T05:26:41.069Z,1017.51
2019-02-09T05:27:21.664Z,1017.55
2019-02-09T05:28:02.265Z,1017.55
2019-02-09T05:28:42.852Z,1017.58
2019-02-09T05:29:23.439Z,1017.55
2019-02-09T05:30:04.026Z,1017.56
2019-02-09T05:30:44.633Z,1017.55
2019-02-09T05:31:25.221Z,1017.51
2019-02-09T05:32:05.870Z,1017.51
2019-02-09T05:32:46.476Z,1017.5
2019-02-09T05:33:27.067Z,1017.49
2019-02-09T05:34:07.656Z,1017.52
2019-02-09T05:34:48.239Z,1017.52
2019-02-09T05:35:28.829Z,1017.51
2019-02-09T05:36:09.435Z,1017.54
2019-02-09T05:36:50.027Z,1017.53
2019-02-09T05:37:30.669Z,1017.54
2019-02-09T05:38:11.260Z,1017.53
2019-02-09T05:38:51.865Z,1017.52
2019-02-09T05:39:33.777Z,1017.56
2019-02-09T05:40:13.041Z,1017.52
2019-02-09T05:40:53.670Z,1017.56
2019-02-09T05:41:34.265Z,1017.52
2019-02-09T05:42:14.875Z,1017.54
2019-02-09T05:42:55.498Z,1017.57
2019-02-09T05:43:36.059Z,1017.56
2019-02-09T05:44:16.639Z,1017.59
2019-02-09T05:44:57.243Z,1017.58
2019-02-09T05:45:37.817Z,1017.57
2019-02-09T05:46:18.407Z,1017.59
2019-02-09T05:46:59.026Z,1017.58
2019-02-09T05:47:39.610Z,1017.6
2019-02-09T05:48:20.205Z,1017.6
2019-02-09T05:49:00.854Z,1017.61
2019-02-09T05:49:41.457Z,1017.62
2019-02-09T05:50:22.070Z,1017.62
2019-02-09T05:51:02.673Z,1017.64
2019-02-09T05:51:43.306Z,1017.63
2019-02-09T05:52:23.866Z,1017.58
2019-02-09T05:53:04.536Z,1017.6
2019-02-09T05:53:45.101Z,1017.62
2019-02-09T05:54:25.719Z,1017.61
2019-02-09T05:55:06.348Z,1017.61
2019-02-09T05:55:46.945Z,1017.63
2019-02-09T05:56:27.537Z,1017.64
2019-02-09T05:57:08.137Z,1017.63
2019-02-09T05:57:48.741Z,1017.61
2019-02-09T05:58:29.340Z,1017.62
2019-02-09T05:59:09.937Z,1017.61
2019-02-09T05:59:50.543Z,1017.61
2019-02-09T06:00:31.149Z,1017.62
2019-02-09T06:01:11.747Z,1017.65
2019-02-09T06:01:52.331Z,1017.63
2019-02-09T06:02:32.913Z,1017.67
2019-02-09T06:03:13.507Z,1017.69
2019-02-09T06:03:54.089Z,1017.65
2019-02-09T06:04:34.697Z,1017.68
2019-02-09T06:05:15.311Z,1017.69
2019-02-09T06:05:55.906Z,1017.68
2019-02-09T06:06:36.518Z,1017.69
2019-02-09T06:07:17.105Z,1017.67
2019-02-09T06:07:57.723Z,1017.65
2019-02-09T06:08:38.317Z,1017.66
2019-02-09T06:09:18.903Z,1017.62
2019-02-09T06:09:59.538Z,1017.68
2019-02-09T06:10:40.131Z,1017.71
2019-02-09T06:11:20.725Z,1017.69
2019-02-09T06:12:01.329Z,1017.7
2019-02-09T06:12:42.008Z,1017.72
2019-02-09T06:13:22.607Z,1017.71
2019-02-09T06:14:03.206Z,1017.76
2019-02-09T06:14:43.809Z,1017.77
2019-02-09T06:15:24.395Z,1017.71
2019-02-09T06:16:04.987Z,1017.75
2019-02-09T06:16:45.585Z,1017.73
2019-02-09T06:17:26.185Z,1017.69
2019-02-09T06:18:06.769Z,1017.69
2019-02-09T06:18:47.382Z,1017.7
2019-02-09T06:19:27.973Z,1017.71
2019-02-09T06:20:08.578Z,1017.71
2019-02-09T06:20:49.171Z,1017.69
2019-02-09T06:21:29.771Z,1017.7
2019-02-09T06:22:10.369Z,1017.7
2019-02-09T06:22:50.964Z,1017.72
2019-02-09T06:23:31.569Z,1017.73
2019-02-09T06:24:12.191Z,1017.74
2019-02-09T06:24:52.781Z,1017.72
2019-02-09T06:25:33.388Z,1017.74
2019-02-09T06:26:13.999Z,1017.71
2019-02-09T06:26:54.596Z,1017.71
2019-02-09T06:27:35.225Z,1017.72
2019-02-09T06:28:15.865Z,1017.72
2019-02-09T06:28:56.479Z,1017.73
2019-02-09T06:29:37.071Z,1017.72
2019-02-09T06:30:17.667Z,1017.71
2019-02-09T06:30:58.271Z,1017.71
2019-02-09T06:31:40.788Z,1017.69
2019-02-09T06:32:19.473Z,1017.76
2019-02-09T06:33:00.085Z,1017.74
2019-02-09T06:33:40.681Z,1017.77
2019-02-09T06:34:21.287Z,1017.79
2019-02-09T06:35:01.885Z,1017.75
2019-02-09T06:35:42.496Z,1017.78
2019-02-09T06:36:23.089Z,1017.78
2019-02-09T06:37:03.698Z,1017.77
2019-02-09T06:37:44.303Z,1017.74
2019-02-09T06:38:24.907Z,1017.76
2019-02-09T06:39:05.519Z,1017.72
2019-02-09T06:39:46.109Z,1017.78
2019-02-09T06:40:26.714Z,1017.75
2019-02-09T06:41:07.318Z,1017.73
2019-02-09T06:41:47.901Z,1017.71
2019-02-09T06:42:28.499Z,1017.73
2019-02-09T06:43:09.097Z,1017.72
2019-02-09T06:43:49.693Z,1017.69
2019-02-09T06:44:30.302Z,1017.7
2019-02-09T06:45:10.997Z,1017.74
2019-02-09T06:45:51.585Z,1017.76
2019-02-09T06:46:32.183Z,1017.78
2019-02-09T06:47:12.779Z,1017.79
2019-02-09T06:47:53.384Z,1017.76
2019-02-09T06:48:33.977Z,1017.82
2019-02-09T06:49:14.593Z,1017.81
2019-02-09T06:49:55.196Z,1017.83
2019-02-09T06:50:35.795Z,1017.83
2019-02-09T06:51:16.409Z,1017.82
2019-02-09T06:51:56.994Z,1017.82
2019-02-09T06:52:37.615Z,1017.85
2019-02-09T06:53:18.203Z,1017.84
2019-02-09T06:53:58.827Z,1017.84
2019-02-09T06:54:39.431Z,1017.87
2019-02-09T06:55:20.028Z,1017.95
2019-02-09T06:56:00.625Z,1017.91
2019-02-09T06:56:41.224Z,1017.96
2019-02-09T06:57:21.848Z,1017.94
2019-02-09T06:58:02.451Z,1017.97
2019-02-09T06:58:43.031Z,1017.96
2019-02-09T06:59:23.649Z,1017.94
2019-02-09T07:00:04.222Z,1017.94
2019-02-09T07:00:44.816Z,1017.96
2019-02-09T07:01:25.454Z,1017.97
2019-02-09T07:02:06.051Z,1017.99
2019-02-09T07:02:46.653Z,1017.96
2019-02-09T07:03:27.241Z,1017.97
2019-02-09T07:04:07.845Z,1017.98
2019-02-09T07:04:48.493Z,1017.99
2019-02-09T07:05:29.058Z,1018.02
2019-02-09T07:06:09.665Z,1018.05
2019-02-09T07:06:50.259Z,1018.1
2019-02-09T07:07:30.874Z,1018.08
2019-02-09T07:08:11.467Z,1018.1
2019-02-09T07:08:52.084Z,1018.13
2019-02-09T07:09:32.689Z,1018.1
2019-02-09T07:10:13.298Z,1018.14
2019-02-09T07:10:53.913Z,1018.15
2019-02-09T07:11:34.527Z,1018.17
2019-02-09T07:12:15.112Z,1018.15
2019-02-09T07:12:55.711Z,1018.17
2019-02-09T07:13:36.307Z,1018.16
2019-02-09T07:14:16.931Z,1018.17
2019-02-09T07:14:57.521Z,1018.18
2019-02-09T07:15:38.111Z,1018.21
2019-02-09T07:16:18.737Z,1018.16
2019-02-09T07:16:59.325Z,1018.2
2019-02-09T07:17:39.915Z,1018.18
2019-02-09T07:18:20.505Z,1018.23
2019-02-09T07:19:01.126Z,1018.18
2019-02-09T07:19:41.743Z,1018.23
2019-02-09T07:20:22.349Z,1018.25
2019-02-09T07:21:02.949Z,1018.26
2019-02-09T07:21:43.557Z,1018.29
2019-02-09T07:22:24.149Z,1018.25
2019-02-09T07:23:04.735Z,1018.27
2019-02-09T07:23:45.394Z,1018.27
2019-02-09T07:24:26.035Z,1018.22
2019-02-09T07:25:06.648Z,1018.25
2019-02-09T07:25:47.257Z,1018.27
2019-02-09T07:26:27.848Z,1018.26
2019-02-09T07:27:08.469Z,1018.27
2019-02-09T07:27:49.331Z,1018.28
2019-02-09T07:28:29.917Z,1018.29
2019-02-09T07:29:10.511Z,1018.3
2019-02-09T07:29:51.131Z,1018.37
2019-02-09T07:30:31.754Z,1018.39
2019-02-09T07:31:12.409Z,1018.39
2019-02-09T07:31:56.445Z,1018.38
2019-02-09T07:32:33.664Z,1018.4
2019-02-09T07:33:14.331Z,1018.38
2019-02-09T07:33:54.979Z,1018.41
2019-02-09T07:34:35.583Z,1018.44
2019-02-09T07:35:16.205Z,1018.43
2019-02-09T07:35:56.791Z,1018.47
2019-02-09T07:36:37.403Z,1018.46
2019-02-09T07:37:18.037Z,1018.42
2019-02-09T07:37:58.667Z,1018.44
2019-02-09T07:38:39.247Z,1018.49
2019-02-09T07:39:19.837Z,1018.52
2019-02-09T07:40:00.453Z,1018.52
2019-02-09T07:40:41.052Z,1018.53
2019-02-09T07:41:21.663Z,1018.56
2019-02-09T07:42:02.273Z,1018.59
2019-02-09T07:42:42.891Z,1018.64
2019-02-09T07:43:23.508Z,1018.64
2019-02-09T07:44:04.097Z,1018.63
2019-02-09T07:44:44.685Z,1018.63
2019-02-09T07:45:25.307Z,1018.64
2019-02-09T07:46:05.911Z,1018.67
2019-02-09T07:46:46.545Z,1018.63
2019-02-09T07:47:27.243Z,1018.63
2019-02-09T07:48:07.853Z,1018.64
2019-02-09T07:48:48.567Z,1018.63
2019-02-09T07:49:29.169Z,1018.67
2019-02-09T07:50:09.769Z,1018.65
2019-02-09T07:50:50.357Z,1018.65
2019-02-09T07:51:30.945Z,1018.67
2019-02-09T07:52:11.553Z,1018.68
2019-02-09T07:52:52.139Z,1018.68
2019-02-09T07:53:32.825Z,1018.71
2019-02-09T07:54:13.423Z,1018.75
2019-02-09T07:54:54.035Z,1018.72
2019-02-09T07:55:34.651Z,1018.73
2019-02-09T07:56:15.253Z,1018.71
2019-02-09T07:56:55.858Z,1018.7
2019-02-09T07:57:36.457Z,1018.7
2019-02-09T07:58:17.059Z,1018.74
2019-02-09T07:58:57.665Z,1018.71
2019-02-09T07:59:38.292Z,1018.72
2019-02-09T08:00:18.905Z,1018.72
2019-02-09T08:00:59.589Z,1018.74
2019-02-09T08:01:40.209Z,1018.73
2019-02-09T08:02:20.801Z,1018.78
2019-02-09T08:03:01.443Z,1018.78
2019-02-09T08:03:42.095Z,1018.81
2019-02-09T08:04:22.749Z,1018.82
2019-02-09T08:05:03.375Z,1018.78
2019-02-09T08:05:43.981Z,1018.77
2019-02-09T08:06:24.603Z,1018.87
2019-02-09T08:07:05.193Z,1018.84
2019-02-09T08:07:45.817Z,1018.9
2019-02-09T08:08:26.427Z,1018.89
2019-02-09T08:09:07.027Z,1018.91
2019-02-09T08:09:47.639Z,1018.91
2019-02-09T08:10:28.263Z,1018.9
2019-02-09T08:11:09.471Z,1018.93
2019-02-09T08:11:49.512Z,1018.92
2019-02-09T08:12:30.112Z,1018.91
2019-02-09T08:13:10.724Z,1018.91
2019-02-09T08:13:51.327Z,1018.92
2019-02-09T08:14:31.931Z,1018.96
2019-02-09T08:15:12.573Z,1018.93
2019-02-09T08:15:53.177Z,1018.94